aviador You're here:

SCTN Decoded Metar

CHAITEN in CHILE
Report Time2017-11-25 00:00:00
UTC Time2017-11-25 00:09:57
Flight Rules vfr VFR
Wind220° at 05 kt
W.Decomp.*RWY 13: 0.9 kt HW 4.9 kt RCW
W.Rank220° ranks 21
Current wind is below 220° avg. (8.0)
Visibility9999 m
Phenomena:N/A
Clouds:N/A
Expected CloudBase > 2,400 ft AGL from Temp-Dew spread
CeilingNone
Temp12°C (ISA -3)
Dew Point06°C (67% RH)
AAT9.3°C
QNH1025 hPa
Density Alt-620 ft
Elevation13 ft
Report Wrong Elevation
Raw Report
METAR SCTN 250000Z AUTO 22005KT CAVOK 12/06 Q1025=

Extra information for SCTN:More info

Metar Taf Metar & Taf Last 4 Metars F.Rules Stats Wind Profile Meteogram Temp Stats Airport Information Weather charts Add Link Nearby VenuesMetar ALERT Operation Metar Decoded Social comments